Terminal Aerodrome Forecast
Issued by NWS

Home | Current Version | Previous Version | Text Only | Print | Product List | Glossary On
Versions: 1 2 3 4 5 6 7 8 9 10 11 12 13 14 15
768
FTUS43 KDTX 250915 AAA
TAFMBS
TAF AMD
KMBS 250915Z 2509/2606 20006KT P6SM FEW250
     FM251500 23011KT P6SM SCT250
     FM260000 21005KT P6SM BKN250=

USA.gov is the U.S. government's official web portal to all federal, state and local government web resources and services.